Schooner Mary Day — WCY939 — position and weather

sailwx.info

Track history (hours):
 
Tides and Currents Weather Stations Pressure Air Temp Water Temp Dewpoint Dewpoint Depression Visibility Wind Speed Wind Dir Waves Ship Positions

Schooner Mary Day

Last reported at 2017-Sep-20 20:52 UTC. Time now 2017-Sep-21 05:25 UTC.
Position N 44°13' W 068°60'.

Length 30 m.

Type: Passenger vessel. MMSI: 367389280.

Date/timePositionNaut miles runAvg speedWind from/ knotsBaromVisibWave heightAir tempDewpointWater temp
2017-Sep-20 20:52N 44°13' W 068°60'4 0.1
2017-Sep-18 16:53N 44°12' W 068°54'2 3.7
2017-Sep-18 16:27N 44°11' W 068°56'2 3.4
2017-Sep-18 15:53N 44°11' W 068°59'2 4.1
2017-Sep-18 15:30N 44°11' W 069°01'2 4.1
2017-Sep-18 15:00N 44°12' W 069°03'1 0.4
2017-Sep-18 13:22N 44°13' W 069°04'0 0.0
2017-Sep-18 09:04N 44°13' W 069°04'0 0.0
2017-Sep-18 01:01N 44°13' W 069°04'0 0.0
2017-Sep-18 00:58N 44°13' W 069°04'0 0.0
2017-Sep-17 20:49N 44°13' W 069°04'0 0.0
2017-Sep-17 20:28N 44°13' W 069°04'0 0.0
2017-Sep-17 19:58N 44°13' W 069°04'0 0.0
2017-Sep-17 18:13N 44°13' W 069°04'0 0.0
2017-Sep-17 15:12N 44°13' W 069°04'0 0.0
2017-Sep-17 14:59N 44°13' W 069°04'0 0.0
2017-Sep-17 14:00N 44°13' W 069°04'0 0.0
2017-Sep-17 13:14N 44°13' W 069°04'0 0.0
2017-Sep-17 12:48N 44°13' W 069°04'0 0.0
2017-Sep-17 12:24N 44°13' W 069°04'0 0.0
2017-Sep-17 11:56N 44°13' W 069°04'0 0.0
2017-Sep-17 11:17N 44°13' W 069°04'0 0.0
2017-Sep-17 08:23N 44°13' W 069°04'0 0.0
2017-Sep-17 06:54N 44°13' W 069°04'0 0.0
2017-Sep-17 05:30N 44°13' W 069°04'0 0.0
2017-Sep-17 04:14N 44°13' W 069°04'0 0.0
2017-Sep-17 02:24N 44°13' W 069°04'0 0.0
2017-Sep-17 00:02N 44°13' W 069°04'0 0.0
2017-Sep-16 23:54N 44°13' W 069°04'0 0.0
2017-Sep-16 21:41N 44°13' W 069°04'0 0.0
2017-Sep-16 21:17N 44°13' W 069°04'0 0.0
2017-Sep-16 20:54N 44°13' W 069°04'0 0.0
2017-Sep-16 20:02N 44°13' W 069°04'0 0.0
2017-Sep-16 19:50N 44°13' W 069°04'0 0.0
2017-Sep-16 19:29N 44°13' W 069°04'0 0.0
2017-Sep-16 18:56N 44°13' W 069°04'0 0.0
2017-Sep-16 18:23N 44°13' W 069°04'0 0.0
2017-Sep-16 17:47N 44°13' W 069°04'0 0.0
2017-Sep-16 17:14N 44°13' W 069°04'0 0.0
2017-Sep-16 16:59N 44°13' W 069°04'0 0.0
2017-Sep-16 14:14N 44°13' W 069°04'0 1.6
2017-Sep-16 14:00N 44°12' W 069°03'  
2017-Sep-11 16:47N 44°06' W 068°57'3 6.7
2017-Sep-11 16:21N 44°06' W 069°01'2 4.7
2017-Sep-11 15:52N 44°07' W 069°04'2 6.2
2017-Sep-11 15:30N 44°09' W 069°03'3 5.0
2017-Sep-11 15:00N 44°12' W 069°03'1 1.3
2017-Sep-11 14:14N 44°13' W 069°04'0 0.0
2017-Sep-11 12:43N 44°13' W 069°04'0 0.0
2017-Sep-11 12:25N 44°13' W 069°04'0 0.0
2017-Sep-11 09:55N 44°13' W 069°04'0 0.0
2017-Sep-11 07:01N 44°13' W 069°04'0 0.0
2017-Sep-11 06:46N 44°13' W 069°04'0 0.0
2017-Sep-11 06:07N 44°13' W 069°04'0 0.0
2017-Sep-11 04:13N 44°13' W 069°04'0 0.0
2017-Sep-11 02:07N 44°13' W 069°04'  
Track history (hours):
 
Tides and Currents Weather Stations Pressure Air Temp Water Temp Dewpoint Dewpoint Depression Visibility Wind Speed Wind Dir Waves Ship Positions

Schooner Mary Day

Last reported at 2017-Sep-20 20:52 UTC. Time now 2017-Sep-21 05:25 UTC.
Position N 44°13' W 068°60'.

Length 30 m.

Type: Passenger vessel. MMSI: 367389280.

Date/timePositionNaut miles runAvg speedWind from/ knotsBaromVisibWave heightAir tempDewpointWater temp
2017-Sep-20 20:52N 44°13' W 068°60'4 0.1
2017-Sep-18 16:53N 44°12' W 068°54'2 3.7
2017-Sep-18 16:27N 44°11' W 068°56'2 3.4
2017-Sep-18 15:53N 44°11' W 068°59'2 4.1
2017-Sep-18 15:30N 44°11' W 069°01'2 4.1
2017-Sep-18 15:00N 44°12' W 069°03'1 0.4
2017-Sep-18 13:22N 44°13' W 069°04'0 0.0
2017-Sep-18 09:04N 44°13' W 069°04'0 0.0
2017-Sep-18 01:01N 44°13' W 069°04'0 0.0
2017-Sep-18 00:58N 44°13' W 069°04'0 0.0
2017-Sep-17 20:49N 44°13' W 069°04'0 0.0
2017-Sep-17 20:28N 44°13' W 069°04'0 0.0
2017-Sep-17 19:58N 44°13' W 069°04'0 0.0
2017-Sep-17 18:13N 44°13' W 069°04'0 0.0
2017-Sep-17 15:12N 44°13' W 069°04'0 0.0
2017-Sep-17 14:59N 44°13' W 069°04'0 0.0
2017-Sep-17 14:00N 44°13' W 069°04'0 0.0
2017-Sep-17 13:14N 44°13' W 069°04'0 0.0
2017-Sep-17 12:48N 44°13' W 069°04'0 0.0
2017-Sep-17 12:24N 44°13' W 069°04'0 0.0
2017-Sep-17 11:56N 44°13' W 069°04'0 0.0
2017-Sep-17 11:17N 44°13' W 069°04'0 0.0
2017-Sep-17 08:23N 44°13' W 069°04'0 0.0
2017-Sep-17 06:54N 44°13' W 069°04'0 0.0
2017-Sep-17 05:30N 44°13' W 069°04'0 0.0
2017-Sep-17 04:14N 44°13' W 069°04'0 0.0
2017-Sep-17 02:24N 44°13' W 069°04'0 0.0
2017-Sep-17 00:02N 44°13' W 069°04'0 0.0
2017-Sep-16 23:54N 44°13' W 069°04'0 0.0
2017-Sep-16 21:41N 44°13' W 069°04'0 0.0
2017-Sep-16 21:17N 44°13' W 069°04'0 0.0
2017-Sep-16 20:54N 44°13' W 069°04'0 0.0
2017-Sep-16 20:02N 44°13' W 069°04'0 0.0
2017-Sep-16 19:50N 44°13' W 069°04'0 0.0
2017-Sep-16 19:29N 44°13' W 069°04'0 0.0
2017-Sep-16 18:56N 44°13' W 069°04'0 0.0
2017-Sep-16 18:23N 44°13' W 069°04'0 0.0
2017-Sep-16 17:47N 44°13' W 069°04'0 0.0
2017-Sep-16 17:14N 44°13' W 069°04'0 0.0
2017-Sep-16 16:59N 44°13' W 069°04'0 0.0
2017-Sep-16 14:14N 44°13' W 069°04'0 1.6
2017-Sep-16 14:00N 44°12' W 069°03'  
2017-Sep-11 16:47N 44°06' W 068°57'3 6.7
2017-Sep-11 16:21N 44°06' W 069°01'2 4.7
2017-Sep-11 15:52N 44°07' W 069°04'2 6.2
2017-Sep-11 15:30N 44°09' W 069°03'3 5.0
2017-Sep-11 15:00N 44°12' W 069°03'1 1.3
2017-Sep-11 14:14N 44°13' W 069°04'0 0.0
2017-Sep-11 12:43N 44°13' W 069°04'0 0.0
2017-Sep-11 12:25N 44°13' W 069°04'0 0.0
2017-Sep-11 09:55N 44°13' W 069°04'0 0.0
2017-Sep-11 07:01N 44°13' W 069°04'0 0.0
2017-Sep-11 06:46N 44°13' W 069°04'0 0.0
2017-Sep-11 06:07N 44°13' W 069°04'0 0.0
2017-Sep-11 04:13N 44°13' W 069°04'0 0.0
2017-Sep-11 02:07N 44°13' W 069°04'  

Dump ship's entire track history